createdAt,value
2023-11-07T00:01:48.653Z,96622.31
2023-11-07T00:04:15.862Z,96655.38
2023-11-07T00:06:43.281Z,96686.81
2023-11-07T00:09:11.129Z,96706.78
2023-11-07T00:11:39.182Z,96737.19
2023-11-07T00:14:07.385Z,96765.38
2023-11-07T00:16:35.491Z,96788.81
2023-11-07T00:19:04.049Z,96818.19
2023-11-07T00:21:31.258Z,96857.84
2023-11-07T00:23:58.392Z,96892.75
2023-11-07T00:26:25.537Z,96906.56
2023-11-07T00:28:52.955Z,96931.41
2023-11-07T00:31:20.068Z,96952.16
2023-11-07T00:33:47.398Z,96981.50
2023-11-07T00:36:14.764Z,96986.25
2023-11-07T00:38:41.881Z,96995.72
2023-11-07T00:41:09.085Z,97014.81
2023-11-07T00:43:36.249Z,97047.47
2023-11-07T00:46:04.780Z,97058.56
2023-11-07T00:48:32.176Z,97083.63
2023-11-07T00:51:01.175Z,97111.34
2023-11-07T00:53:28.438Z,97130.44
2023-11-07T00:55:55.780Z,97155.06
2023-11-07T00:58:23.667Z,97186.09
2023-11-07T01:00:50.955Z,97204.16
2023-11-07T01:03:19.698Z,97223.22
2023-11-07T01:05:46.968Z,97239.03
2023-11-07T01:08:15.489Z,97264.09
2023-11-07T01:10:42.599Z,97295.06
2023-11-07T01:13:09.727Z,97316.03
2023-11-07T01:15:37.234Z,97348.44
2023-11-07T01:18:07.707Z,97370.81
2023-11-07T01:20:35.110Z,97395.22
2023-11-07T01:23:02.337Z,97434.22
2023-11-07T01:25:29.532Z,97446.97
2023-11-07T01:27:56.650Z,97471.56
2023-11-07T01:30:23.753Z,97496.59
2023-11-07T01:32:52.239Z,97521.84
2023-11-07T01:35:19.730Z,97535.38
2023-11-07T01:37:46.863Z,97565.97
2023-11-07T01:40:14.229Z,97589.78
2023-11-07T01:42:42.066Z,97612.16
2023-11-07T01:45:11.337Z,97633.50
2023-11-07T01:47:40.191Z,97656.69
2023-11-07T01:50:09.672Z,97686.66
2023-11-07T01:52:37.450Z,97705.34
2023-11-07T01:55:06.996Z,97724.22
2023-11-07T01:57:34.777Z,97738.59
2023-11-07T02:00:09.983Z,97755.81
2023-11-07T02:02:40.684Z,97775.09
2023-11-07T02:05:08.426Z,97797.63
2023-11-07T02:07:35.581Z,97821.00
2023-11-07T02:10:03.078Z,97833.25
2023-11-07T02:12:30.163Z,97857.09
2023-11-07T02:14:57.426Z,97872.44
2023-11-07T02:17:25.316Z,97870.53
2023-11-07T02:19:52.471Z,97884.06
2023-11-07T02:22:21.952Z,97878.31
2023-11-07T02:24:49.134Z,97879.09
2023-11-07T02:27:18.389Z,97893.00
2023-11-07T02:29:47.276Z,97894.19
2023-11-07T02:32:15.598Z,97903.44
2023-11-07T02:34:42.723Z,97915.09
2023-11-07T02:37:09.842Z,97934.78
2023-11-07T02:39:36.968Z,97930.56
2023-11-07T02:42:04.238Z,97941.44
2023-11-07T02:44:31.403Z,97954.78
2023-11-07T02:46:58.481Z,97971.13
2023-11-07T02:49:25.673Z,97979.31
2023-11-07T02:51:52.782Z,97987.47
2023-11-07T02:57:22.747Z,97999.97
2023-11-07T02:59:50.992Z,98028.03
2023-11-07T03:02:20.893Z,98042.38
2023-11-07T03:04:48.185Z,98048.09
2023-11-07T03:07:15.426Z,98055.44
2023-11-07T03:09:45.164Z,98085.19
2023-11-07T03:12:13.845Z,98087.84
2023-11-07T03:14:42.708Z,98093.09
2023-11-07T03:17:09.990Z,98095.09
2023-11-07T03:19:37.546Z,98085.84
2023-11-07T03:22:04.739Z,98090.50
2023-11-07T03:24:31.840Z,98098.50
2023-11-07T03:26:59.291Z,98106.50
2023-11-07T03:29:26.552Z,98118.81
2023-11-07T03:31:54.902Z,98118.38
2023-11-07T03:34:22.627Z,98124.53
2023-11-07T03:36:49.856Z,98136.19
2023-11-07T03:39:17.014Z,98149.13
2023-11-07T03:41:46.396Z,98153.84
2023-11-07T03:44:14.061Z,98176.56
2023-11-07T03:46:41.658Z,98174.63
2023-11-07T03:49:09.116Z,98175.22
2023-11-07T03:51:36.330Z,98170.63
2023-11-07T03:54:03.467Z,98184.94
2023-11-07T03:56:30.536Z,98189.94
2023-11-07T03:58:57.636Z,98194.00
2023-11-07T04:01:25.438Z,98209.13
2023-11-07T04:03:53.229Z,98226.66
2023-11-07T04:06:20.465Z,98240.63
2023-11-07T04:08:47.637Z,98252.31
2023-11-07T04:11:15.947Z,98270.28
2023-11-07T04:13:43.812Z,98280.94
2023-11-07T04:16:10.930Z,98300.25
2023-11-07T04:18:38.290Z,98313.72
2023-11-07T04:21:05.693Z,98329.72
2023-11-07T04:23:32.960Z,98344.03
2023-11-07T04:26:00.334Z,98364.69
2023-11-07T04:28:28.149Z,98370.16
2023-11-07T04:30:55.702Z,98370.53
2023-11-07T04:33:22.946Z,98389.50
2023-11-07T04:35:50.403Z,98401.00
2023-11-07T04:38:17.844Z,98404.19
2023-11-07T04:40:45.073Z,98422.16
2023-11-07T04:43:12.176Z,98439.13
2023-11-07T04:45:39.446Z,98448.31
2023-11-07T04:48:07.389Z,98468.78
2023-11-07T04:50:37.513Z,98477.59
2023-11-07T04:53:10.598Z,98478.75
2023-11-07T04:55:37.730Z,98485.25
2023-11-07T04:58:04.831Z,98494.56
2023-11-07T05:00:32.068Z,98492.38
2023-11-07T05:02:59.398Z,98497.72
2023-11-07T05:05:26.669Z,98487.06
2023-11-07T05:07:53.842Z,98485.41
2023-11-07T05:10:21.491Z,98484.56
2023-11-07T05:12:48.641Z,98492.06
2023-11-07T05:15:16.064Z,98501.53
2023-11-07T05:17:43.398Z,98512.03
2023-11-07T05:20:11.663Z,98519.53
2023-11-07T05:22:38.961Z,98527.84
2023-11-07T05:25:09.313Z,98531.69
2023-11-07T05:27:36.528Z,98538.00
2023-11-07T05:30:04.226Z,98552.31
2023-11-07T05:32:31.931Z,98558.97
2023-11-07T05:34:59.133Z,98568.63
2023-11-07T05:37:26.249Z,98576.13
2023-11-07T05:39:53.365Z,98582.28
2023-11-07T05:42:20.624Z,98580.28
2023-11-07T05:44:47.717Z,98587.94
2023-11-07T05:47:14.959Z,98593.25
2023-11-07T05:49:46.759Z,98608.72
2023-11-07T05:52:13.952Z,98611.41
2023-11-07T05:54:41.098Z,98615.72
2023-11-07T05:57:08.479Z,98627.91
2023-11-07T05:59:35.778Z,98628.88
2023-11-07T06:02:03.851Z,98634.22
2023-11-07T06:04:32.306Z,98643.34
2023-11-07T06:07:00.516Z,98643.69
2023-11-07T06:09:27.898Z,98653.84
2023-11-07T06:11:55.150Z,98684.63
2023-11-07T06:14:22.698Z,98682.81
2023-11-07T06:16:49.877Z,98696.81
2023-11-07T06:19:17.176Z,98700.47
2023-11-07T06:21:44.371Z,98707.28
2023-11-07T06:24:11.516Z,98715.25
2023-11-07T06:26:38.667Z,98716.09
2023-11-07T06:29:05.852Z,98719.59
2023-11-07T06:31:33.977Z,98731.09
2023-11-07T06:34:01.624Z,98735.41
2023-11-07T06:36:28.719Z,98728.91
2023-11-07T06:38:56.366Z,98741.06
2023-11-07T06:41:23.627Z,98755.06
2023-11-07T06:43:52.123Z,98766.22
2023-11-07T06:46:19.289Z,98767.88
2023-11-07T06:48:47.553Z,98775.41
2023-11-07T06:51:15.825Z,98796.56
2023-11-07T06:53:46.132Z,98799.75
2023-11-07T06:56:14.632Z,98822.94
2023-11-07T06:58:42.256Z,98834.44
2023-11-07T07:01:11.882Z,98842.09
2023-11-07T07:03:39.092Z,98853.78
2023-11-07T07:06:07.626Z,98868.13
2023-11-07T07:08:34.977Z,98885.81
2023-11-07T07:11:02.182Z,98899.16
2023-11-07T07:13:29.349Z,98907.19
2023-11-07T07:15:57.493Z,98907.88
2023-11-07T07:18:26.330Z,98911.88
2023-11-07T07:20:55.988Z,98923.56
2023-11-07T07:23:30.303Z,98931.59
2023-11-07T07:25:58.077Z,98937.56
2023-11-07T07:28:26.771Z,98962.28
2023-11-07T07:30:55.375Z,98968.34
2023-11-07T07:33:25.376Z,98984.00
2023-11-07T07:35:52.675Z,98979.03
2023-11-07T07:38:20.080Z,98989.69
2023-11-07T07:40:47.513Z,98993.56
2023-11-07T07:43:14.963Z,99005.03
2023-11-07T07:45:45.306Z,99013.41
2023-11-07T07:48:13.083Z,99014.03
2023-11-07T07:50:43.243Z,99026.38
2023-11-07T07:53:11.963Z,99015.19
2023-11-07T07:55:46.742Z,99042.88
2023-11-07T07:58:19.840Z,99042.47
2023-11-07T08:00:50.577Z,99048.63
2023-11-07T08:03:18.269Z,99050.09
2023-11-07T08:05:45.644Z,99045.22
2023-11-07T08:08:16.056Z,99028.34
2023-11-07T08:10:48.756Z,99011.28
2023-11-07T08:13:17.810Z,99003.78
2023-11-07T08:15:45.329Z,98991.41
2023-11-07T08:18:12.681Z,98975.06
2023-11-07T08:20:40.618Z,98958.00
2023-11-07T08:23:08.104Z,98940.97
2023-11-07T08:25:35.992Z,98939.91
2023-11-07T08:28:10.877Z,98911.28
2023-11-07T08:30:39.336Z,98883.31
2023-11-07T08:33:08.744Z,98867.25
2023-11-07T08:35:37.580Z,98866.41
2023-11-07T08:38:04.757Z,98861.72
2023-11-07T08:40:31.919Z,98854.47
2023-11-07T08:42:59.026Z,98832.84
2023-11-07T08:45:26.219Z,98814.84
2023-11-07T08:47:54.337Z,98774.69
2023-11-07T08:50:24.703Z,98753.50
2023-11-07T08:52:51.935Z,98744.34
2023-11-07T08:55:19.659Z,98711.38
2023-11-07T08:57:47.442Z,98680.03
2023-11-07T09:00:25.106Z,98643.78
2023-11-07T09:02:53.714Z,98595.66
2023-11-07T09:05:21.892Z,98531.69
2023-11-07T09:07:49.155Z,98484.69
2023-11-07T09:10:16.374Z,98404.84
2023-11-07T09:12:43.885Z,98352.69
2023-11-07T09:15:12.869Z,98293.31
2023-11-07T09:17:41.102Z,98232.91
2023-11-07T09:20:12.831Z,98168.38
2023-11-07T09:22:40.763Z,98100.69
2023-11-07T09:25:08.500Z,98004.72
2023-11-07T09:27:35.646Z,97926.31
2023-11-07T09:30:02.854Z,97867.84
2023-11-07T09:32:30.740Z,97787.94
2023-11-07T09:34:59.916Z,97709.09
2023-11-07T09:37:29.277Z,97636.72
2023-11-07T09:39:56.409Z,97551.50
2023-11-07T09:42:23.759Z,97449.53
2023-11-07T09:44:52.224Z,97333.53
2023-11-07T09:47:19.484Z,97239.78
2023-11-07T09:49:46.636Z,97138.59
2023-11-07T09:52:15.656Z,97030.47
2023-11-07T09:54:44.090Z,96947.50
2023-11-07T09:57:12.098Z,96862.50
2023-11-07T09:59:42.504Z,96742.75
2023-11-07T10:02:09.656Z,96614.44
2023-11-07T10:04:37.628Z,96511.03
2023-11-07T10:07:05.142Z,96378.91
2023-11-07T10:09:32.952Z,96259.16
2023-11-07T10:12:00.863Z,96173.81
2023-11-07T10:14:28.058Z,96064.91
2023-11-07T10:16:57.813Z,95944.66
2023-11-07T10:19:25.898Z,95857.78
2023-11-07T10:21:53.217Z,95745.84
2023-11-07T10:24:21.202Z,95678.50
2023-11-07T10:26:51.310Z,95626.94
2023-11-07T10:29:26.847Z,95556.38
2023-11-07T10:32:04.546Z,95486.97
2023-11-07T10:34:32.041Z,95505.25
2023-11-07T10:37:02.159Z,95609.56
2023-11-07T10:39:31.345Z,95772.41
2023-11-07T10:42:15.855Z,95888.81
2023-11-07T10:44:44.467Z,95985.41
2023-11-07T10:47:12.157Z,95997.91
2023-11-07T10:49:40.690Z,96023.78
2023-11-07T10:52:08.463Z,96017.63
2023-11-07T10:54:35.589Z,95999.13
2023-11-07T10:57:06.102Z,95971.97
2023-11-07T10:59:36.256Z,95960.13
2023-11-07T11:02:04.873Z,95942.50
2023-11-07T11:04:34.796Z,95903.59
2023-11-07T11:07:06.000Z,95867.28
2023-11-07T11:09:34.316Z,95836.97
2023-11-07T11:12:08.148Z,95819.00
2023-11-07T11:14:35.302Z,95797.00
2023-11-07T11:17:09.918Z,95772.38
2023-11-07T11:19:54.186Z,95756.84
2023-11-07T11:22:39.773Z,95738.34
2023-11-07T11:25:25.479Z,95713.13
2023-11-07T11:27:56.440Z,95671.00
2023-11-07T11:30:33.103Z,95639.84
2023-11-07T11:33:10.684Z,95626.97
2023-11-07T11:35:42.430Z,95611.66
2023-11-07T11:38:24.716Z,95584.50
2023-11-07T11:41:01.921Z,95568.41
2023-11-07T11:43:33.588Z,95533.78
2023-11-07T11:46:14.491Z,95517.69
2023-11-07T11:48:50.744Z,95484.09
2023-11-07T11:51:31.368Z,95464.25
2023-11-07T11:53:59.128Z,95432.31
2023-11-07T11:56:26.463Z,95419.41
2023-11-07T11:59:06.650Z,95386.41
2023-11-07T12:02:04.883Z,95379.19
2023-11-07T12:04:40.070Z,95364.69
2023-11-07T12:07:10.675Z,95346.59
2023-11-07T12:09:39.237Z,95342.28
2023-11-07T12:12:08.521Z,95327.59
2023-11-07T12:14:49.050Z,95325.38
2023-11-07T12:17:17.655Z,95309.81
2023-11-07T12:19:45.237Z,95289.50
2023-11-07T12:22:12.592Z,95283.63
2023-11-07T12:24:39.810Z,95290.06
2023-11-07T12:27:07.150Z,95273.44
2023-11-07T12:29:35.433Z,95265.66
2023-11-07T12:32:03.707Z,95263.75
2023-11-07T12:34:33.295Z,95259.13
2023-11-07T12:37:08.540Z,95258.28
2023-11-07T12:39:36.229Z,95243.28
2023-11-07T12:42:03.557Z,95233.13
2023-11-07T12:44:30.672Z,95234.75
2023-11-07T12:46:57.908Z,95231.06
2023-11-07T12:49:25.192Z,95227.28
2023-11-07T12:51:52.402Z,95240.34
2023-11-07T12:54:28.812Z,95232.53
2023-11-07T12:56:56.047Z,95240.59
2023-11-07T12:59:23.164Z,95227.03
2023-11-07T13:01:50.396Z,95225.19
2023-11-07T13:04:19.125Z,95240.81
2023-11-07T13:06:53.287Z,95246.47
2023-11-07T13:09:24.092Z,95247.28
2023-11-07T13:11:51.252Z,95245.19
2023-11-07T13:14:19.252Z,95253.41
2023-11-07T13:16:47.782Z,95252.06
2023-11-07T13:19:16.988Z,95247.03
2023-11-07T13:21:44.153Z,95242.47
2023-11-07T13:24:11.825Z,95240.84
2023-11-07T13:26:39.017Z,95244.63
2023-11-07T13:29:07.169Z,95236.88
2023-11-07T13:31:34.334Z,95243.84
2023-11-07T13:34:01.600Z,95245.72
2023-11-07T13:36:28.805Z,95238.75
2023-11-07T13:38:55.982Z,95244.41
2023-11-07T13:41:23.146Z,95239.84
2023-11-07T13:43:52.476Z,95245.50
2023-11-07T13:46:20.114Z,95251.94
2023-11-07T13:48:49.612Z,95255.91
2023-11-07T13:51:18.258Z,95254.34
2023-11-07T13:53:45.403Z,95257.56
2023-11-07T13:56:15.681Z,95266.69
2023-11-07T13:58:43.664Z,95261.84
2023-11-07T14:01:10.848Z,95270.50
2023-11-07T14:03:40.834Z,95269.44
2023-11-07T14:06:08.123Z,95275.31
2023-11-07T14:08:36.265Z,95279.88
2023-11-07T14:11:03.602Z,95267.81
2023-11-07T14:13:30.798Z,95274.00
2023-11-07T14:16:00.131Z,95279.88
2023-11-07T14:18:28.266Z,95286.84
2023-11-07T14:20:59.733Z,95296.22
2023-11-07T14:23:27.814Z,95289.03
2023-11-07T14:25:55.322Z,95292.81
2023-11-07T14:28:22.420Z,95308.09
2023-11-07T14:30:49.747Z,95319.31
2023-11-07T14:33:19.152Z,95340.75
2023-11-07T14:35:47.237Z,95350.94
2023-11-07T14:38:15.460Z,95389.56
2023-11-07T14:40:42.661Z,95413.69
2023-11-07T14:43:16.176Z,95448.00
2023-11-07T14:45:45.659Z,95491.09
2023-11-07T14:48:15.127Z,95520.28
2023-11-07T14:50:42.782Z,95542.22
2023-11-07T14:53:09.956Z,95572.25
2023-11-07T14:55:37.423Z,95604.91
2023-11-07T14:58:08.308Z,95629.50
2023-11-07T15:00:41.581Z,95645.56
2023-11-07T15:03:13.484Z,95655.19
2023-11-07T15:05:45.081Z,95666.72
2023-11-07T15:08:12.531Z,95686.25
2023-11-07T15:10:39.743Z,95694.53
2023-11-07T15:13:07.638Z,95703.94
2023-11-07T15:15:35.500Z,95709.53
2023-11-07T15:18:03.596Z,95694.53
2023-11-07T15:20:32.571Z,95703.91
2023-11-07T15:23:02.388Z,95713.56
2023-11-07T15:25:31.759Z,95710.91
2023-11-07T15:27:59.172Z,95709.28
2023-11-07T15:30:28.252Z,95715.38
2023-11-07T15:32:58.438Z,95716.09
2023-11-07T15:35:26.838Z,95719.25
2023-11-07T15:37:53.922Z,95722.50
2023-11-07T15:40:23.468Z,95725.69
2023-11-07T15:42:52.635Z,95725.91
2023-11-07T15:45:20.317Z,95730.44
2023-11-07T15:47:47.856Z,95734.22
2023-11-07T15:50:16.777Z,95739.00
2023-11-07T15:53:00.519Z,95745.91
2023-11-07T15:55:35.978Z,95755.88
2023-11-07T15:58:03.276Z,95759.59
2023-11-07T16:00:30.593Z,95762.84
2023-11-07T16:02:58.059Z,95774.00
2023-11-07T16:05:33.649Z,95786.03
2023-11-07T16:08:02.152Z,95787.63
2023-11-07T16:10:32.598Z,95782.28
2023-11-07T16:13:00.098Z,95786.50
2023-11-07T16:15:27.396Z,95788.09
2023-11-07T16:17:54.774Z,95781.59
2023-11-07T16:20:22.488Z,95782.13
2023-11-07T16:22:49.802Z,95777.28
2023-11-07T16:25:17.842Z,95769.81
2023-11-07T16:27:45.561Z,95766.78
2023-11-07T16:30:14.807Z,95758.97
2023-11-07T16:32:42.386Z,95768.84
2023-11-07T16:35:11.152Z,95773.97
2023-11-07T16:37:39.158Z,95777.69
2023-11-07T16:40:09.509Z,95781.97
2023-11-07T16:42:39.891Z,95780.31
2023-11-07T16:45:07.535Z,95772.78
2023-11-07T16:47:35.156Z,95783.66
2023-11-07T16:50:02.761Z,95778.47
2023-11-07T16:52:30.195Z,95780.75
2023-11-07T16:54:57.611Z,95790.56
2023-11-07T16:57:24.813Z,95790.97
2023-11-07T16:59:52.651Z,95797.69
2023-11-07T17:02:20.283Z,95805.44
2023-11-07T17:04:48.043Z,95804.31
2023-11-07T17:07:15.641Z,95793.81
2023-11-07T17:09:42.849Z,95797.59
2023-11-07T17:12:10.133Z,95794.44
2023-11-07T17:14:38.850Z,95801.41
2023-11-07T17:17:09.113Z,95793.94
2023-11-07T17:19:36.206Z,95788.66
2023-11-07T17:22:03.415Z,95781.19
2023-11-07T17:24:33.372Z,95778.59
2023-11-07T17:27:00.527Z,95781.28
2023-11-07T17:29:27.719Z,95774.06
2023-11-07T17:31:58.166Z,95779.16
2023-11-07T17:34:25.490Z,95767.69
2023-11-07T17:36:52.916Z,95757.00
2023-11-07T17:39:22.250Z,95746.59
2023-11-07T17:41:53.169Z,95734.53
2023-11-07T17:44:21.942Z,95717.97
2023-11-07T17:46:49.452Z,95687.53
2023-11-07T17:49:17.443Z,95662.16
2023-11-07T17:51:46.213Z,95626.34
2023-11-07T17:54:17.181Z,95575.88
2023-11-07T17:56:44.318Z,95548.38
2023-11-07T17:59:12.885Z,95498.94
2023-11-07T18:01:40.541Z,95451.16
2023-11-07T18:04:07.912Z,95426.31
2023-11-07T18:06:35.538Z,95398.75
2023-11-07T18:09:03.218Z,95391.00
2023-11-07T18:11:35.484Z,95360.81
2023-11-07T18:14:04.663Z,95346.38
2023-11-07T18:16:32.557Z,95341.84
2023-11-07T18:19:00.473Z,95348.53
2023-11-07T18:21:28.931Z,95365.09
2023-11-07T18:23:57.992Z,95375.78
2023-11-07T18:26:25.362Z,95386.44
2023-11-07T18:28:52.521Z,95400.50
2023-11-07T18:31:20.000Z,95423.22
2023-11-07T18:33:51.103Z,95439.53
2023-11-07T18:36:20.058Z,95448.22
2023-11-07T18:38:48.036Z,95476.22
2023-11-07T18:41:17.676Z,95492.47
2023-11-07T18:43:44.941Z,95522.84
2023-11-07T18:46:16.743Z,95539.09
2023-11-07T18:48:44.027Z,95571.41
2023-11-07T18:51:12.112Z,95592.06
2023-11-07T18:53:45.275Z,95628.31
2023-11-07T18:56:14.050Z,95659.59
2023-11-07T18:58:41.466Z,95703.28
2023-11-07T19:01:11.335Z,95737.16
2023-11-07T19:03:38.470Z,95784.19
2023-11-07T19:06:06.122Z,95819.38
2023-11-07T19:08:33.336Z,95857.63
2023-11-07T19:11:01.057Z,95884.66
2023-11-07T19:13:28.568Z,95923.06
2023-11-07T19:15:55.754Z,95966.44
2023-11-07T19:18:24.128Z,96003.78
2023-11-07T19:20:52.551Z,96038.25
2023-11-07T19:23:20.622Z,96055.91
2023-11-07T19:25:48.337Z,96084.88
2023-11-07T19:28:15.762Z,96114.44
2023-11-07T19:30:43.726Z,96154.25
2023-11-07T19:33:12.610Z,96193.09
2023-11-07T19:35:43.221Z,96220.69
2023-11-07T19:38:10.928Z,96257.13
2023-11-07T19:40:38.206Z,96286.81
2023-11-07T19:43:05.366Z,96292.47
2023-11-07T19:45:32.669Z,96320.91
2023-11-07T19:48:01.064Z,96322.75
2023-11-07T19:50:29.620Z,96330.34
2023-11-07T19:53:02.600Z,96357.63
2023-11-07T19:55:36.607Z,96388.09
2023-11-07T19:58:03.730Z,96429.28
2023-11-07T20:00:31.040Z,96448.66
2023-11-07T20:02:58.337Z,96478.78
2023-11-07T20:05:27.492Z,96501.16
2023-11-07T20:07:56.696Z,96535.03
2023-11-07T20:10:25.477Z,96564.50
2023-11-07T20:12:53.094Z,96578.94
2023-11-07T20:15:22.640Z,96593.88
2023-11-07T20:17:49.861Z,96637.75
2023-11-07T20:20:16.983Z,96657.28
2023-11-07T20:22:45.086Z,96698.78
2023-11-07T20:25:12.839Z,96726.25
2023-11-07T20:27:40.531Z,96745.56
2023-11-07T20:30:10.899Z,96788.69
2023-11-07T20:32:38.310Z,96825.56
2023-11-07T20:35:06.008Z,96868.41
2023-11-07T20:37:33.214Z,96889.56
2023-11-07T20:40:00.422Z,96930.56
2023-11-07T20:42:27.577Z,96949.28
2023-11-07T20:45:01.177Z,96972.44
2023-11-07T20:47:36.037Z,96999.13
2023-11-07T20:50:06.314Z,97043.84
2023-11-07T20:52:34.119Z,97060.25
2023-11-07T20:55:01.888Z,97077.25
2023-11-07T20:57:29.328Z,97099.63
2023-11-07T20:59:56.531Z,97122.59
2023-11-07T21:02:25.238Z,97129.59
2023-11-07T21:04:55.592Z,97143.31
2023-11-07T21:07:23.200Z,97161.97
2023-11-07T21:09:51.277Z,97187.81
2023-11-07T21:12:18.525Z,97203.59
2023-11-07T21:14:46.616Z,97222.25
2023-11-07T21:17:13.773Z,97232.91
2023-11-07T21:19:42.039Z,97246.44
2023-11-07T21:22:09.232Z,97257.28
2023-11-07T21:24:36.713Z,97277.19
2023-11-07T21:27:04.858Z,97290.91
2023-11-07T21:29:32.208Z,97314.06
2023-11-07T21:31:59.932Z,97326.34
2023-11-07T21:34:27.554Z,97340.69
2023-11-07T21:36:55.044Z,97369.16
2023-11-07T21:39:23.736Z,97398.28
2023-11-07T21:41:51.071Z,97427.38
2023-11-07T21:44:18.679Z,97451.38
2023-11-07T21:46:45.990Z,97456.25
2023-11-07T21:49:13.310Z,97488.03
2023-11-07T21:51:40.592Z,97517.34
2023-11-07T21:54:07.919Z,97531.69
2023-11-07T21:56:36.171Z,97546.84
2023-11-07T21:59:05.366Z,97543.91
2023-11-07T22:01:34.275Z,97571.41
2023-11-07T22:04:01.430Z,97580.78
2023-11-07T22:06:28.679Z,97596.78
2023-11-07T22:08:55.767Z,97612.72
2023-11-07T22:11:22.928Z,97626.25
2023-11-07T22:13:49.996Z,97646.78
2023-11-07T22:16:18.135Z,97681.66
2023-11-07T22:18:47.266Z,97705.25
2023-11-07T22:21:15.312Z,97734.38
2023-11-07T22:23:42.420Z,97753.47
2023-11-07T22:26:09.514Z,97779.72
2023-11-07T22:28:37.378Z,97804.34
2023-11-07T22:31:04.503Z,97830.63
2023-11-07T22:33:31.781Z,97840.84
2023-11-07T22:35:59.000Z,97855.16
2023-11-07T22:38:27.671Z,97878.59
2023-11-07T22:40:55.769Z,97890.47
2023-11-07T22:43:22.901Z,97911.97
2023-11-07T22:45:50.102Z,97929.16
2023-11-07T22:48:20.015Z,97930.53
2023-11-07T22:50:47.198Z,97949.19
2023-11-07T22:53:15.210Z,97967.00
2023-11-07T22:55:42.360Z,97973.53
2023-11-07T22:58:09.690Z,97998.81
2023-11-07T23:00:40.697Z,98010.28
2023-11-07T23:03:10.324Z,98019.94
2023-11-07T23:05:38.631Z,98033.44
2023-11-07T23:08:05.973Z,98050.16
2023-11-07T23:10:33.129Z,98050.06
2023-11-07T23:13:00.246Z,98059.63
2023-11-07T23:15:27.412Z,98076.06
2023-11-07T23:17:54.729Z,98103.81
2023-11-07T23:20:22.250Z,98104.00
2023-11-07T23:22:49.692Z,98121.63
2023-11-07T23:25:17.558Z,98139.44
2023-11-07T23:27:46.379Z,98139.34
2023-11-07T23:30:13.988Z,98153.97
2023-11-07T23:32:41.226Z,98167.63
2023-11-07T23:35:09.474Z,98165.84
2023-11-07T23:37:36.687Z,98176.69
2023-11-07T23:40:13.327Z,98184.69
2023-11-07T23:42:44.521Z,98182.72
2023-11-07T23:45:12.285Z,98207.84
2023-11-07T23:47:42.155Z,98219.13
2023-11-07T23:50:10.100Z,98225.66
2023-11-07T23:52:37.509Z,98233.94
2023-11-07T23:55:04.945Z,98249.94
2023-11-07T23:57:34.447Z,98262.72
